createdAt,value
2017-11-23T00:00:53.157Z,9.14
2017-11-23T00:02:01.987Z,9.1
2017-11-23T00:03:10.967Z,9.15
2017-11-23T00:04:19.795Z,9.18
2017-11-23T00:05:28.626Z,9.21
2017-11-23T00:06:37.457Z,9.31
2017-11-23T00:07:46.286Z,9.28
2017-11-23T00:08:55.313Z,9.24
2017-11-23T00:10:04.144Z,9.24
2017-11-23T00:11:12.968Z,9.23
2017-11-23T00:12:21.796Z,9.17
2017-11-23T00:13:30.626Z,9.1
2017-11-23T00:14:39.605Z,9.2
2017-11-23T00:15:48.432Z,9.08
2017-11-23T00:16:57.262Z,9.11
2017-11-23T00:18:06.088Z,9.05
2017-11-23T00:19:15.207Z,9.11
2017-11-23T00:20:24.038Z,9.05
2017-11-23T00:21:32.872Z,9.13
2017-11-23T00:22:41.742Z,9.04
2017-11-23T00:23:50.573Z,9.1
2017-11-23T00:24:59.402Z,9.11
2017-11-23T00:26:08.379Z,9.15
2017-11-23T00:27:17.209Z,9.17
2017-11-23T00:28:26.039Z,9.2
2017-11-23T00:29:34.868Z,9.13
2017-11-23T00:30:43.699Z,9.04
2017-11-23T00:31:52.682Z,9.18
2017-11-23T00:33:01.512Z,9.24
2017-11-23T00:34:10.342Z,9.1
2017-11-23T00:35:19.177Z,9.21
2017-11-23T00:36:28.004Z,9.05
2017-11-23T00:37:36.835Z,9.14
2017-11-23T00:38:45.665Z,9.17
2017-11-23T00:39:54.493Z,9.23
2017-11-23T00:41:03.328Z,9.43
2017-11-23T00:42:12.164Z,9.2
2017-11-23T00:43:20.988Z,9.18
2017-11-23T00:44:30.093Z,9.23
2017-11-23T00:45:39.202Z,9.23
2017-11-23T00:46:48.031Z,9.17
2017-11-23T00:47:56.859Z,9.23
2017-11-23T00:49:05.690Z,9.21
2017-11-23T00:50:14.518Z,9.2
2017-11-23T00:51:23.347Z,9.26
2017-11-23T00:52:32.467Z,9.04
2017-11-23T00:53:41.293Z,9.13
2017-11-23T00:54:50.223Z,9.15
2017-11-23T00:55:59.049Z,9.13
2017-11-23T00:57:07.881Z,9.15
2017-11-23T00:58:16.710Z,9.05
2017-11-23T00:59:25.539Z,9.08
2017-11-23T01:00:34.367Z,9.17
2017-11-23T01:01:43.195Z,9.14
2017-11-23T01:02:52.027Z,9.15
2017-11-23T01:04:00.858Z,9.05
2017-11-23T01:05:09.688Z,9.05
2017-11-23T01:06:19.018Z,9.02
2017-11-23T01:07:27.853Z,9.1
2017-11-23T01:08:36.677Z,9.02
2017-11-23T01:09:45.789Z,9.08
2017-11-23T01:10:54.616Z,9.08
2017-11-23T01:12:03.445Z,9.05
2017-11-23T01:13:12.276Z,9.14
2017-11-23T01:14:21.104Z,9.11
2017-11-23T01:15:29.933Z,8.96
2017-11-23T01:16:38.766Z,9.11
2017-11-23T01:17:47.791Z,8.99
2017-11-23T01:18:56.622Z,8.89
2017-11-23T01:20:05.446Z,8.95
2017-11-23T01:21:14.277Z,9.05
2017-11-23T01:22:23.104Z,9.1
2017-11-23T01:23:32.310Z,9.13
2017-11-23T01:24:41.139Z,9.17
2017-11-23T01:25:50.258Z,9.18
2017-11-23T01:26:59.087Z,9.1
2017-11-23T01:28:07.916Z,9.08
2017-11-23T01:31:25.085Z,9.13
2017-11-23T01:32:33.914Z,9.05
2017-11-23T01:33:42.762Z,9.05
2017-11-23T01:34:51.572Z,9.26
2017-11-23T01:36:00.400Z,9.1
2017-11-23T01:37:09.507Z,9.11
2017-11-23T01:38:18.346Z,9.14
2017-11-23T01:39:27.168Z,9.26
2017-11-23T01:40:36.049Z,9.15
2017-11-23T01:41:44.879Z,9.23
2017-11-23T01:42:53.708Z,9.24
2017-11-23T01:44:02.540Z,9.24
2017-11-23T01:45:11.372Z,9.23
2017-11-23T01:46:20.599Z,9.2
2017-11-23T01:47:29.426Z,9.2
2017-11-23T01:48:38.255Z,9.26
2017-11-23T01:49:47.083Z,9.21
2017-11-23T01:50:55.912Z,9.23
2017-11-23T01:52:04.891Z,9.26
2017-11-23T01:53:13.996Z,9.26
2017-11-23T01:54:23.104Z,9.2
2017-11-23T01:55:31.940Z,9.24
2017-11-23T01:56:40.762Z,9.18
2017-11-23T01:57:49.893Z,9.23
2017-11-23T01:58:58.716Z,9.2
2017-11-23T02:00:07.548Z,9.26
2017-11-23T02:01:16.377Z,9.28
2017-11-23T02:02:25.206Z,9.23
2017-11-23T02:03:34.340Z,9.21
2017-11-23T02:04:43.167Z,9.18
2017-11-23T02:05:51.997Z,9.28
2017-11-23T02:07:00.834Z,9.23
2017-11-23T02:08:09.950Z,9.23
2017-11-23T02:09:19.160Z,9.28
2017-11-23T02:10:27.988Z,9.24
2017-11-23T02:11:36.816Z,9.2
2017-11-23T02:12:45.650Z,9.26
2017-11-23T02:13:54.472Z,9.24
2017-11-23T02:15:03.452Z,9.14
2017-11-23T02:16:12.285Z,9.23
2017-11-23T02:17:21.117Z,9.18
2017-11-23T02:18:29.946Z,9.26
2017-11-23T02:19:38.771Z,9.2
2017-11-23T02:20:47.603Z,9.15
2017-11-23T02:21:56.732Z,9.08
2017-11-23T02:23:05.552Z,9.11
2017-11-23T02:24:14.381Z,9.14
2017-11-23T02:25:23.210Z,9.1
2017-11-23T02:26:32.242Z,9.15
2017-11-23T02:27:41.071Z,9.14
2017-11-23T02:28:49.904Z,9.08
2017-11-23T02:29:58.934Z,9.04
2017-11-23T02:31:08.045Z,9.05
2017-11-23T02:32:17.303Z,9.08
2017-11-23T02:33:26.133Z,9.04
2017-11-23T02:34:34.963Z,9.1
2017-11-23T02:35:43.795Z,9.05
2017-11-23T02:36:52.625Z,9.01
2017-11-23T02:38:01.506Z,8.99
2017-11-23T02:39:11.181Z,8.96
2017-11-23T02:40:20.010Z,8.95
2017-11-23T02:41:28.843Z,8.87
2017-11-23T02:42:37.954Z,8.98
2017-11-23T02:43:46.831Z,8.96
2017-11-23T02:44:55.662Z,8.98
2017-11-23T02:46:04.490Z,8.92
2017-11-23T02:47:13.323Z,8.86
2017-11-23T02:48:22.154Z,8.95
2017-11-23T02:49:30.982Z,8.94
2017-11-23T02:50:39.811Z,8.89
2017-11-23T02:51:48.641Z,8.94
2017-11-23T02:52:57.471Z,8.95
2017-11-23T02:54:06.312Z,8.89
2017-11-23T02:55:15.379Z,8.86
2017-11-23T02:56:24.209Z,8.83
2017-11-23T02:57:33.039Z,8.91
2017-11-23T02:58:41.868Z,8.79
2017-11-23T02:59:50.697Z,8.86
2017-11-23T03:00:59.578Z,8.81
2017-11-23T03:02:08.742Z,8.83
2017-11-23T03:03:17.567Z,8.87
2017-11-23T03:04:26.398Z,8.79
2017-11-23T03:05:35.225Z,8.84
2017-11-23T03:06:44.053Z,8.77
2017-11-23T03:07:52.882Z,8.79
2017-11-23T03:09:01.711Z,8.74
2017-11-23T03:10:10.539Z,8.73
2017-11-23T03:11:51.528Z,8.65
2017-11-23T03:13:00.633Z,8.66
2017-11-23T03:14:09.465Z,8.63
2017-11-23T03:15:18.293Z,8.56
2017-11-23T03:16:27.119Z,8.65
2017-11-23T03:17:36.251Z,8.55
2017-11-23T03:18:45.080Z,8.58
2017-11-23T03:19:53.913Z,8.59
2017-11-23T03:21:02.741Z,8.63
2017-11-23T03:22:11.568Z,8.56
2017-11-23T03:23:20.497Z,8.55
2017-11-23T03:24:29.333Z,8.55
2017-11-23T03:25:38.162Z,8.56
2017-11-23T03:26:46.993Z,8.59
2017-11-23T03:27:55.821Z,8.52
2017-11-23T03:29:04.939Z,8.44
2017-11-23T03:30:13.770Z,8.47
2017-11-23T03:31:22.875Z,8.48
2017-11-23T03:32:31.706Z,8.53
2017-11-23T03:33:40.537Z,8.48
2017-11-23T03:34:49.767Z,8.55
2017-11-23T03:35:58.595Z,8.5
2017-11-23T03:37:07.422Z,8.53
2017-11-23T03:38:16.253Z,8.59
2017-11-23T03:39:25.082Z,8.45
2017-11-23T03:40:33.912Z,8.58
2017-11-23T03:41:42.741Z,8.44
2017-11-23T03:42:51.570Z,8.47
2017-11-23T03:44:00.399Z,8.43
2017-11-23T03:45:09.504Z,8.43
2017-11-23T03:46:18.635Z,8.48
2017-11-23T03:47:27.744Z,8.48
2017-11-23T03:48:36.572Z,8.45
2017-11-23T03:49:45.401Z,8.53
2017-11-23T03:50:54.230Z,8.44
2017-11-23T03:52:03.208Z,8.47
2017-11-23T03:53:12.035Z,8.52
2017-11-23T03:54:20.865Z,8.45
2017-11-23T03:55:29.975Z,8.47
2017-11-23T03:56:38.804Z,8.45
2017-11-23T03:57:47.784Z,8.48
2017-11-23T03:58:56.612Z,8.47
2017-11-23T04:00:05.440Z,8.5
2017-11-23T04:01:14.546Z,8.47
2017-11-23T04:02:23.376Z,8.56
2017-11-23T04:03:32.250Z,8.59
2017-11-23T04:04:41.080Z,8.53
2017-11-23T04:05:49.909Z,8.52
2017-11-23T04:06:58.738Z,8.55
2017-11-23T04:08:07.567Z,8.52
2017-11-23T04:09:16.695Z,8.5
2017-11-23T04:10:25.525Z,8.47
2017-11-23T04:11:34.354Z,8.62
2017-11-23T04:12:43.180Z,8.56
2017-11-23T04:13:52.007Z,8.56
2017-11-23T04:15:00.991Z,8.56
2017-11-23T04:16:09.822Z,8.48
2017-11-23T04:17:18.648Z,8.58
2017-11-23T04:18:27.766Z,8.55
2017-11-23T04:19:36.592Z,8.5
2017-11-23T04:20:45.468Z,8.59
2017-11-23T04:21:54.299Z,8.56
2017-11-23T04:23:03.405Z,8.58
2017-11-23T04:24:12.236Z,8.58
2017-11-23T04:25:21.069Z,8.58
2017-11-23T04:26:29.891Z,8.58
2017-11-23T04:27:38.720Z,8.58
2017-11-23T04:28:47.549Z,8.58
2017-11-23T04:29:56.628Z,8.52
2017-11-23T04:31:05.657Z,8.58
2017-11-23T04:32:14.633Z,8.62
2017-11-23T04:33:23.463Z,8.55
2017-11-23T04:34:32.293Z,8.63
2017-11-23T04:35:41.126Z,8.71
2017-11-23T04:36:50.518Z,8.73
2017-11-23T04:37:59.395Z,8.77
2017-11-23T04:39:08.226Z,8.71
2017-11-23T04:40:17.054Z,8.77
2017-11-23T04:41:25.888Z,8.76
2017-11-23T04:42:34.992Z,8.73
2017-11-23T04:43:43.816Z,8.8
2017-11-23T04:44:52.647Z,8.77
2017-11-23T04:46:01.480Z,8.77
2017-11-23T04:47:10.308Z,8.8
2017-11-23T04:48:19.136Z,8.77
2017-11-23T04:49:28.065Z,8.77
2017-11-23T04:50:37.174Z,8.76
2017-11-23T04:51:46.006Z,8.8
2017-11-23T04:52:54.834Z,8.86
2017-11-23T04:54:03.664Z,8.8
2017-11-23T04:55:12.542Z,8.84
2017-11-23T04:56:21.368Z,8.89
2017-11-23T04:57:30.197Z,8.95
2017-11-23T04:58:39.025Z,9.05
2017-11-23T04:59:47.854Z,8.99
2017-11-23T05:00:56.781Z,8.98
2017-11-23T05:02:05.609Z,8.95
2017-11-23T05:03:14.439Z,8.87
2017-11-23T05:04:23.264Z,8.92
2017-11-23T05:05:32.092Z,8.89
2017-11-23T05:06:41.208Z,8.95
2017-11-23T05:07:50.046Z,8.98
2017-11-23T05:08:58.865Z,8.95
2017-11-23T05:10:07.699Z,8.95
2017-11-23T05:11:16.530Z,8.94
2017-11-23T05:12:25.509Z,8.96
2017-11-23T05:13:34.336Z,9.11
2017-11-23T05:14:43.441Z,9.24
2017-11-23T05:15:52.270Z,9.21
2017-11-23T05:17:01.100Z,9.21
2017-11-23T05:18:10.029Z,9.32
2017-11-23T05:19:18.854Z,9.31
2017-11-23T05:20:27.685Z,9.46
2017-11-23T05:21:36.513Z,9.38
2017-11-23T05:22:45.341Z,9.61
2017-11-23T05:23:54.320Z,9.57
2017-11-23T05:25:03.168Z,9.69
2017-11-23T05:26:11.977Z,9.75
2017-11-23T05:27:20.807Z,9.66
2017-11-23T05:28:29.633Z,9.79
2017-11-23T05:29:38.563Z,9.78
2017-11-23T05:30:47.393Z,9.75
2017-11-23T05:31:56.227Z,9.72
2017-11-23T05:33:05.052Z,9.76
2017-11-23T05:34:13.883Z,9.65
2017-11-23T05:35:22.862Z,9.83
2017-11-23T05:36:31.690Z,9.78
2017-11-23T05:37:40.518Z,9.86
2017-11-23T05:38:49.348Z,9.97
2017-11-23T05:39:58.179Z,9.99
2017-11-23T05:41:07.058Z,9.99
2017-11-23T05:42:15.885Z,9.97
2017-11-23T05:43:24.716Z,10.09
2017-11-23T05:44:33.544Z,10.04
2017-11-23T05:45:42.373Z,10.01
2017-11-23T05:46:51.359Z,10.04
2017-11-23T05:48:00.189Z,9.94
2017-11-23T05:49:09.020Z,10.01
2017-11-23T05:50:17.849Z,9.94
2017-11-23T05:51:26.680Z,9.97
2017-11-23T05:52:35.790Z,9.96
2017-11-23T05:53:44.617Z,9.9
2017-11-23T05:54:53.445Z,9.94
2017-11-23T05:56:02.274Z,9.94
2017-11-23T05:57:11.102Z,9.89
2017-11-23T05:58:20.232Z,9.89
2017-11-23T05:59:29.064Z,9.91
2017-11-23T06:00:37.896Z,9.84
2017-11-23T06:01:47.009Z,9.84
2017-11-23T06:02:56.406Z,9.87
2017-11-23T06:04:05.668Z,9.91
2017-11-23T06:05:14.498Z,9.79
2017-11-23T06:06:23.326Z,9.79
2017-11-23T06:07:32.157Z,9.86
2017-11-23T06:08:40.988Z,9.84
2017-11-23T06:09:49.967Z,9.79
2017-11-23T06:10:59.080Z,9.76
2017-11-23T06:12:08.189Z,9.68
2017-11-23T06:13:17.020Z,9.69
2017-11-23T06:14:25.851Z,9.69
2017-11-23T06:15:34.734Z,9.58
2017-11-23T06:16:43.563Z,9.56
2017-11-23T06:17:52.679Z,9.51
2017-11-23T06:19:01.608Z,9.54
2017-11-23T06:20:10.437Z,9.51
2017-11-23T06:21:19.371Z,9.5
2017-11-23T06:22:28.479Z,9.51
2017-11-23T06:23:37.311Z,9.48
2017-11-23T06:24:46.423Z,9.53
2017-11-23T06:25:55.257Z,9.51
2017-11-23T06:27:04.094Z,9.53
2017-11-23T06:28:12.925Z,9.48
2017-11-23T06:29:21.757Z,9.51
2017-11-23T06:30:30.591Z,9.5
2017-11-23T06:31:39.422Z,9.46
2017-11-23T06:32:48.250Z,9.46
2017-11-23T06:33:57.089Z,9.4
2017-11-23T06:35:06.197Z,9.36
2017-11-23T06:36:15.026Z,9.38
2017-11-23T06:37:23.855Z,9.43
2017-11-23T06:38:32.741Z,9.42
2017-11-23T06:39:41.562Z,9.46
2017-11-23T06:40:50.393Z,9.47
2017-11-23T06:41:59.225Z,9.46
2017-11-23T06:43:08.053Z,9.42
2017-11-23T06:44:17.265Z,9.4
2017-11-23T06:45:26.101Z,9.46
2017-11-23T06:46:35.216Z,9.53
2017-11-23T06:47:44.045Z,9.5
2017-11-23T06:48:52.879Z,9.54
2017-11-23T06:50:01.960Z,9.46
2017-11-23T06:51:10.789Z,9.48
2017-11-23T06:52:19.620Z,9.54
2017-11-23T06:53:28.450Z,9.53
2017-11-23T06:54:37.280Z,9.54
2017-11-23T06:55:46.159Z,9.54
2017-11-23T06:56:55.549Z,9.54
2017-11-23T06:58:04.657Z,9.57
2017-11-23T06:59:13.770Z,9.54
2017-11-23T07:00:22.599Z,9.57
2017-11-23T07:01:31.578Z,9.53
2017-11-23T07:02:40.424Z,9.53
2017-11-23T07:03:49.241Z,9.57
2017-11-23T07:04:58.063Z,9.56
2017-11-23T07:06:06.894Z,9.54
2017-11-23T07:07:15.979Z,9.48
2017-11-23T07:08:24.802Z,9.57
2017-11-23T07:09:33.632Z,9.54
2017-11-23T07:10:42.468Z,9.61
2017-11-23T07:11:51.296Z,9.64
2017-11-23T07:13:00.126Z,9.61
2017-11-23T07:14:08.958Z,9.66
2017-11-23T07:15:17.789Z,9.69
2017-11-23T07:16:26.898Z,9.71
2017-11-23T07:17:35.724Z,9.68
2017-11-23T07:18:44.706Z,9.68
2017-11-23T07:19:53.536Z,9.71
2017-11-23T07:21:02.372Z,9.68
2017-11-23T07:22:11.202Z,9.65
2017-11-23T07:23:20.053Z,9.66
2017-11-23T07:24:29.161Z,9.64
2017-11-23T07:25:37.995Z,9.72
2017-11-23T07:26:46.824Z,9.69
2017-11-23T07:27:55.656Z,9.76
2017-11-23T07:29:04.486Z,9.76
2017-11-23T07:30:13.467Z,9.79
2017-11-23T07:31:22.297Z,9.76
2017-11-23T07:32:31.412Z,9.75
2017-11-23T07:33:40.240Z,9.93
2017-11-23T07:34:49.071Z,9.81
2017-11-23T07:35:58.100Z,9.83
2017-11-23T07:37:06.931Z,9.79
2017-11-23T07:38:15.760Z,9.79
2017-11-23T07:39:24.593Z,9.81
2017-11-23T07:40:33.424Z,9.78
2017-11-23T07:41:42.304Z,9.78
2017-11-23T07:42:51.130Z,9.78
2017-11-23T07:43:59.962Z,9.76
2017-11-23T07:45:08.792Z,9.76
2017-11-23T07:46:17.623Z,9.76
2017-11-23T07:47:26.599Z,9.84
2017-11-23T07:48:35.433Z,9.79
2017-11-23T07:49:44.263Z,9.79
2017-11-23T07:50:53.096Z,9.9
2017-11-23T07:52:01.931Z,9.93
2017-11-23T07:53:10.856Z,9.87
2017-11-23T07:54:19.690Z,9.9
2017-11-23T07:55:28.520Z,9.94
2017-11-23T07:56:37.355Z,9.96
2017-11-23T07:57:46.182Z,9.97
2017-11-23T07:58:55.113Z,9.94
2017-11-23T08:00:03.942Z,9.97
2017-11-23T08:01:12.773Z,9.97
2017-11-23T08:02:21.603Z,10.04
2017-11-23T08:03:30.435Z,10.05
2017-11-23T08:04:39.271Z,10.02
2017-11-23T08:05:48.099Z,10.05
2017-11-23T08:06:56.927Z,10.05
2017-11-23T08:08:05.759Z,10.05
2017-11-23T08:09:14.589Z,10.04
2017-11-23T08:10:23.471Z,10.09
2017-11-23T08:11:32.301Z,10.17
2017-11-23T08:12:41.134Z,10.12
2017-11-23T08:13:49.967Z,10.26
2017-11-23T08:14:58.803Z,10.32
2017-11-23T08:16:07.779Z,10.34
2017-11-23T08:17:16.609Z,10.33
2017-11-23T08:18:25.446Z,10.38
2017-11-23T08:19:34.273Z,10.47
2017-11-23T08:20:43.104Z,10.59
2017-11-23T08:21:51.937Z,10.61
2017-11-23T08:23:00.769Z,10.64
2017-11-23T08:24:09.877Z,10.64
2017-11-23T08:25:18.709Z,10.61
2017-11-23T08:26:27.537Z,10.63
2017-11-23T08:27:36.532Z,10.79
2017-11-23T08:28:45.350Z,10.84
2017-11-23T08:29:54.180Z,10.82
2017-11-23T08:31:03.287Z,10.85
2017-11-23T08:32:12.118Z,10.88
2017-11-23T08:33:20.997Z,10.89
2017-11-23T08:34:29.828Z,10.88
2017-11-23T08:35:38.657Z,10.91
2017-11-23T08:36:47.491Z,10.85
2017-11-23T08:37:56.324Z,10.91
2017-11-23T08:39:05.155Z,10.92
2017-11-23T08:40:13.988Z,10.91
2017-11-23T08:41:22.825Z,10.94
2017-11-23T08:42:31.934Z,11
2017-11-23T08:43:40.765Z,11.03
2017-11-23T08:44:49.648Z,11.03
2017-11-23T08:45:58.488Z,11.06
2017-11-23T08:47:07.600Z,11.07
2017-11-23T08:48:16.708Z,11.04
2017-11-23T08:49:25.540Z,11.1
2017-11-23T08:50:34.523Z,11.03
2017-11-23T08:51:43.354Z,11.1
2017-11-23T08:52:52.182Z,11.15
2017-11-23T08:54:01.012Z,11.09
2017-11-23T08:55:09.840Z,11.14
2017-11-23T08:56:18.770Z,11.09
2017-11-23T08:57:27.601Z,11.17
2017-11-23T08:58:36.430Z,11.27
2017-11-23T08:59:45.266Z,11.24
2017-11-23T09:00:54.091Z,11.32
2017-11-23T09:02:03.027Z,11.39
2017-11-23T09:03:11.861Z,11.37
2017-11-23T09:04:20.692Z,11.37
2017-11-23T09:05:29.520Z,11.43
2017-11-23T09:06:38.352Z,11.37
2017-11-23T09:07:47.334Z,11.39
2017-11-23T09:08:56.168Z,11.37
2017-11-23T09:10:04.998Z,11.42
2017-11-23T09:11:13.827Z,11.42
2017-11-23T09:12:22.659Z,11.54
2017-11-23T09:13:31.793Z,11.55
2017-11-23T09:14:40.626Z,11.57
2017-11-23T09:15:49.454Z,11.49
2017-11-23T09:16:58.285Z,11.58
2017-11-23T09:18:07.396Z,11.62
2017-11-23T09:19:16.229Z,11.58
2017-11-23T09:20:25.058Z,11.69
2017-11-23T09:21:34.178Z,11.79
2017-11-23T09:22:43.010Z,11.83
2017-11-23T09:23:52.129Z,11.9
2017-11-23T09:25:00.955Z,11.91
2017-11-23T09:26:09.787Z,11.94
2017-11-23T09:27:18.620Z,11.95
2017-11-23T09:28:27.451Z,11.94
2017-11-23T09:29:36.283Z,12.01
2017-11-23T09:30:45.216Z,12.1
2017-11-23T09:31:54.047Z,12.16
2017-11-23T09:33:02.876Z,12.09
2017-11-23T09:34:11.709Z,12.13
2017-11-23T09:35:20.541Z,12.28
2017-11-23T09:36:29.669Z,12.42
2017-11-23T09:37:38.508Z,12.32
2017-11-23T09:38:47.618Z,12.42
2017-11-23T09:39:56.451Z,12.5
2017-11-23T09:41:05.285Z,12.47
2017-11-23T09:42:14.394Z,12.53
2017-11-23T09:43:23.226Z,12.5
2017-11-23T09:44:32.059Z,12.57
2017-11-23T09:45:40.888Z,12.71
2017-11-23T09:46:49.720Z,12.54
2017-11-23T09:47:58.552Z,12.62
2017-11-23T09:49:07.388Z,12.64
2017-11-23T09:50:16.214Z,12.7
2017-11-23T09:51:25.045Z,12.78
2017-11-23T09:52:33.878Z,12.75
2017-11-23T09:53:42.812Z,12.64
2017-11-23T09:54:51.645Z,12.77
2017-11-23T09:56:00.479Z,12.92
2017-11-23T09:57:09.312Z,12.83
2017-11-23T09:58:18.427Z,12.9
2017-11-23T09:59:27.558Z,13
2017-11-23T10:00:36.391Z,13.03
2017-11-23T10:01:45.221Z,13.07
2017-11-23T10:02:54.347Z,13.1
2017-11-23T10:04:03.471Z,13.12
2017-11-23T10:05:12.299Z,13.28
2017-11-23T10:06:21.135Z,13.15
2017-11-23T10:07:29.966Z,13.33
2017-11-23T10:08:38.797Z,13.32
2017-11-23T10:09:47.631Z,13.33
2017-11-23T10:10:56.465Z,13.33
2017-11-23T10:12:05.300Z,13.38
2017-11-23T10:13:14.449Z,13.28
2017-11-23T10:14:23.539Z,13.42
2017-11-23T10:15:32.370Z,13.39
2017-11-23T10:16:41.254Z,13.32
2017-11-23T10:17:50.364Z,13.39
2017-11-23T10:18:59.196Z,13.45
2017-11-23T10:20:08.028Z,13.39
2017-11-23T10:21:16.867Z,13.33
2017-11-23T10:22:25.793Z,13.32
2017-11-23T10:23:34.636Z,13.45
2017-11-23T10:24:43.752Z,13.55
2017-11-23T10:25:52.591Z,13.46
2017-11-23T10:27:01.419Z,13.54
2017-11-23T10:28:10.402Z,13.48
2017-11-23T10:29:19.234Z,13.6
2017-11-23T10:30:28.067Z,13.63
2017-11-23T10:31:36.900Z,13.69
2017-11-23T10:32:45.735Z,13.75
2017-11-23T10:33:54.902Z,13.79
2017-11-23T10:35:03.737Z,13.81
2017-11-23T10:36:12.569Z,13.82
2017-11-23T10:37:21.405Z,13.92
2017-11-23T10:38:30.241Z,13.85
2017-11-23T10:39:39.176Z,13.79
2017-11-23T10:40:48.010Z,13.84
2017-11-23T10:41:56.844Z,13.89
2017-11-23T10:43:05.955Z,13.87
2017-11-23T10:44:14.791Z,14.04
2017-11-23T10:45:24.055Z,14.04
2017-11-23T10:46:33.170Z,14.17
2017-11-23T10:47:42.003Z,14.21
2017-11-23T10:48:50.837Z,14.2
2017-11-23T10:49:59.670Z,14.25
2017-11-23T10:51:08.605Z,14.32
2017-11-23T10:52:17.438Z,14.35
2017-11-23T10:53:26.560Z,14.47
2017-11-23T10:54:35.392Z,14.46
2017-11-23T10:55:44.223Z,14.46
2017-11-23T10:56:53.056Z,14.47
2017-11-23T10:58:01.891Z,14.52
2017-11-23T10:59:10.723Z,14.61
2017-11-23T11:00:19.557Z,14.6
2017-11-23T11:01:28.389Z,14.58
2017-11-23T11:02:37.374Z,14.69
2017-11-23T11:03:46.208Z,14.62
2017-11-23T11:04:55.041Z,14.62
2017-11-23T11:06:03.878Z,14.65
2017-11-23T11:07:12.709Z,14.58
2017-11-23T11:08:21.696Z,14.64
2017-11-23T11:09:30.529Z,14.7
2017-11-23T11:10:39.645Z,14.78
2017-11-23T11:11:48.481Z,14.7
2017-11-23T11:12:57.316Z,14.61
2017-11-23T11:14:06.579Z,14.69
2017-11-23T11:15:15.412Z,14.68
2017-11-23T11:16:24.247Z,14.73
2017-11-23T11:17:33.080Z,14.64
2017-11-23T11:18:41.910Z,14.72
2017-11-23T11:19:50.744Z,14.62
2017-11-23T11:20:59.581Z,14.77
2017-11-23T11:22:08.411Z,14.72
2017-11-23T11:23:17.257Z,14.72
2017-11-23T11:24:26.078Z,14.73
2017-11-23T11:25:34.962Z,14.75
2017-11-23T11:26:44.074Z,14.69
2017-11-23T11:27:52.911Z,14.6
2017-11-23T11:29:01.744Z,14.64
2017-11-23T11:30:10.977Z,14.51
2017-11-23T11:31:20.011Z,14.42
2017-11-23T11:32:28.844Z,14.28
2017-11-23T11:33:37.676Z,14.25
2017-11-23T11:34:46.788Z,14.29
2017-11-23T11:35:55.620Z,14.24
2017-11-23T11:37:04.738Z,14.28
2017-11-23T11:38:13.622Z,14.29
2017-11-23T11:39:22.741Z,14.25
2017-11-23T11:40:31.575Z,14.27
2017-11-23T11:41:40.407Z,14.37
2017-11-23T11:42:49.292Z,14.37
2017-11-23T11:43:58.128Z,14.32
2017-11-23T11:45:06.961Z,14.39
2017-11-23T11:46:15.795Z,14.33
2017-11-23T11:47:24.644Z,14.32
2017-11-23T11:48:33.511Z,14.5
2017-11-23T11:49:42.346Z,14.42
2017-11-23T11:50:51.182Z,14.4
2017-11-23T11:52:00.013Z,14.46
2017-11-23T11:53:09.185Z,14.46
2017-11-23T11:54:18.448Z,14.42
2017-11-23T11:55:27.309Z,14.5
2017-11-23T11:56:36.117Z,14.45
2017-11-23T11:57:44.948Z,14.43
2017-11-23T11:58:53.844Z,14.33
2017-11-23T12:00:03.042Z,14.39
2017-11-23T12:01:11.876Z,14.37
2017-11-23T12:02:21.264Z,14.4
2017-11-23T12:03:30.784Z,14.43
2017-11-23T12:04:40.022Z,14.46
2017-11-23T12:05:48.910Z,14.52
2017-11-23T12:06:58.026Z,14.57
2017-11-23T12:08:07.460Z,14.57
2017-11-23T12:09:16.349Z,14.52
2017-11-23T12:10:26.648Z,14.52
2017-11-23T12:11:35.482Z,14.52
2017-11-23T12:12:45.223Z,14.42
2017-11-23T12:13:54.349Z,14.28
2017-11-23T12:15:03.206Z,14.36
2017-11-23T12:16:12.064Z,14.28
2017-11-23T12:17:21.069Z,14.27
2017-11-23T12:18:30.483Z,14.24
2017-11-23T12:19:39.623Z,14.15
2017-11-23T12:20:48.502Z,14.09
2017-11-23T12:21:57.716Z,14.07
2017-11-23T12:23:06.865Z,14.02
2017-11-23T12:24:15.858Z,14.04
2017-11-23T12:25:25.224Z,14
2017-11-23T12:26:34.308Z,13.95
2017-11-23T12:27:43.548Z,13.88
2017-11-23T12:28:52.686Z,13.84
2017-11-23T12:30:01.859Z,13.89
2017-11-23T12:31:11.043Z,13.91
2017-11-23T12:32:19.904Z,13.89
2017-11-23T12:33:29.064Z,13.84
2017-11-23T12:34:37.916Z,13.81
2017-11-23T12:35:46.751Z,13.79
2017-11-23T12:36:55.854Z,13.78
2017-11-23T12:38:04.709Z,13.73
2017-11-23T12:39:13.801Z,13.77
2017-11-23T12:40:22.848Z,13.71
2017-11-23T12:41:31.786Z,13.7
2017-11-23T12:42:40.736Z,13.78
2017-11-23T12:43:49.572Z,13.78
2017-11-23T12:44:58.411Z,13.81
2017-11-23T12:46:07.243Z,13.7
2017-11-23T12:47:16.078Z,13.75
2017-11-23T12:48:25.341Z,13.79
2017-11-23T12:49:34.177Z,13.66
2017-11-23T12:50:43.013Z,13.6
2017-11-23T12:51:51.847Z,13.67
2017-11-23T12:53:00.682Z,13.63
2017-11-23T12:54:09.616Z,13.52
2017-11-23T12:55:18.449Z,13.57
2017-11-23T12:56:27.284Z,13.51
2017-11-23T12:57:36.117Z,13.52
2017-11-23T12:58:44.948Z,13.51
2017-11-23T12:59:53.933Z,13.46
2017-11-23T13:01:02.768Z,13.46
2017-11-23T13:02:11.609Z,13.51
2017-11-23T13:03:20.437Z,13.49
2017-11-23T13:04:29.550Z,13.55
2017-11-23T13:05:38.382Z,13.45
2017-11-23T13:06:47.218Z,13.51
2017-11-23T13:07:56.058Z,13.41
2017-11-23T13:09:04.889Z,13.54
2017-11-23T13:10:13.719Z,13.45
2017-11-23T13:11:22.604Z,13.41
2017-11-23T13:12:31.438Z,13.48
2017-11-23T13:13:40.549Z,13.46
2017-11-23T13:14:49.384Z,13.45
2017-11-23T13:15:58.220Z,13.45
2017-11-23T13:17:07.557Z,13.48
2017-11-23T13:18:16.392Z,13.46
2017-11-23T13:19:25.244Z,13.48
2017-11-23T13:20:34.086Z,13.42
2017-11-23T13:21:42.917Z,13.39
2017-11-23T13:22:51.905Z,13.28
2017-11-23T13:24:00.737Z,13.36
2017-11-23T13:25:09.571Z,13.29
2017-11-23T13:26:18.406Z,13.28
2017-11-23T13:27:27.241Z,13.12
2017-11-23T13:28:36.127Z,13.14
2017-11-23T13:29:44.969Z,13.15
2017-11-23T13:30:53.814Z,13.08
2017-11-23T13:32:02.933Z,13.15
2017-11-23T13:33:12.045Z,13.04
2017-11-23T13:34:21.029Z,13.05
2017-11-23T13:35:29.868Z,12.96
2017-11-23T13:36:38.712Z,13
2017-11-23T13:37:47.556Z,13.01
2017-11-23T13:38:56.382Z,13
2017-11-23T13:40:05.223Z,12.93
2017-11-23T13:41:14.150Z,12.79
2017-11-23T13:42:22.984Z,12.79
2017-11-23T13:43:31.818Z,12.77
2017-11-23T13:44:40.929Z,12.79
2017-11-23T13:45:49.764Z,12.74
2017-11-23T13:46:58.603Z,12.67
2017-11-23T13:48:07.430Z,12.68
2017-11-23T13:49:16.271Z,12.67
2017-11-23T13:50:25.100Z,12.71
2017-11-23T13:51:34.080Z,12.67
2017-11-23T13:52:43.200Z,12.68
2017-11-23T13:53:52.033Z,12.56
2017-11-23T13:55:00.865Z,12.56
2017-11-23T13:56:09.705Z,12.62
2017-11-23T13:57:18.686Z,12.59
2017-11-23T13:58:27.796Z,12.59
2017-11-23T13:59:36.926Z,12.53
2017-11-23T14:00:45.754Z,12.56
2017-11-23T14:01:54.586Z,12.59
2017-11-23T14:03:03.430Z,12.57
2017-11-23T14:04:12.541Z,12.49
2017-11-23T14:05:21.375Z,12.64
2017-11-23T14:06:30.210Z,12.64
2017-11-23T14:07:39.044Z,12.65
2017-11-23T14:08:47.925Z,12.54
2017-11-23T14:09:56.760Z,12.6
2017-11-23T14:11:05.592Z,12.56
2017-11-23T14:12:14.526Z,12.53
2017-11-23T14:13:23.357Z,12.59
2017-11-23T14:14:32.344Z,12.52
2017-11-23T14:15:41.461Z,12.53
2017-11-23T14:16:50.297Z,12.57
2017-11-23T14:17:59.405Z,12.54
2017-11-23T14:19:08.237Z,12.56
2017-11-23T14:20:17.124Z,12.65
2017-11-23T14:21:25.952Z,12.54
2017-11-23T14:22:34.783Z,12.57
2017-11-23T14:23:43.895Z,12.56
2017-11-23T14:24:52.729Z,12.57
2017-11-23T14:26:01.572Z,12.47
2017-11-23T14:27:10.684Z,12.42
2017-11-23T14:28:19.797Z,12.46
2017-11-23T14:29:28.629Z,12.41
2017-11-23T14:30:37.464Z,12.49
2017-11-23T14:31:46.297Z,12.42
2017-11-23T14:32:55.131Z,12.41
2017-11-23T14:34:03.969Z,12.46
2017-11-23T14:35:12.802Z,12.5
2017-11-23T14:36:21.638Z,12.49
2017-11-23T14:37:30.720Z,12.46
2017-11-23T14:38:39.553Z,12.47
2017-11-23T14:39:48.387Z,12.47
2017-11-23T14:40:57.219Z,12.52
2017-11-23T14:42:06.053Z,12.53
2017-11-23T14:43:15.084Z,12.5
2017-11-23T14:44:23.915Z,12.59
2017-11-23T14:45:32.748Z,12.62
2017-11-23T14:46:41.581Z,12.62
2017-11-23T14:47:50.415Z,12.53
2017-11-23T14:48:59.549Z,12.62
2017-11-23T14:50:08.400Z,12.71
2017-11-23T14:51:17.223Z,12.67
2017-11-23T14:52:26.338Z,12.77
2017-11-23T14:53:35.164Z,12.71
2017-11-23T14:54:43.996Z,12.77
2017-11-23T14:55:52.830Z,12.82
2017-11-23T14:57:01.664Z,12.79
2017-11-23T14:58:10.497Z,12.77
2017-11-23T14:59:19.330Z,12.83
2017-11-23T15:00:28.163Z,12.9
2017-11-23T15:01:37.276Z,12.89
2017-11-23T15:02:46.402Z,12.93
2017-11-23T15:03:55.238Z,12.93
2017-11-23T15:05:04.075Z,12.93
2017-11-23T15:06:12.957Z,12.85
2017-11-23T15:07:21.790Z,12.87
2017-11-23T15:08:30.621Z,12.93